sensor_id;sensor_type;location;lat;lon;timestamp;pressure;altitude;pressure_sealevel;temperature;humidity
77323;BME280;66384;51.052;9.850;2023-06-22T00:00:19;98874.10;;;19.47;61.64
77323;BME280;66384;51.052;9.850;2023-06-22T00:02:49;98880.58;;;19.39;61.81
77323;BME280;66384;51.052;9.850;2023-06-22T00:05:19;98883.59;;;19.34;61.84
77323;BME280;66384;51.052;9.850;2023-06-22T00:07:48;98883.11;;;19.28;61.92
77323;BME280;66384;51.052;9.850;2023-06-22T00:10:17;98881.89;;;19.25;62.16
77323;BME280;66384;51.052;9.850;2023-06-22T00:12:46;98885.40;;;19.22;62.34
77323;BME280;66384;51.052;9.850;2023-06-22T00:15:15;98890.30;;;19.20;62.45
77323;BME280;66384;51.052;9.850;2023-06-22T00:17:46;98896.25;;;19.15;62.29
77323;BME280;66384;51.052;9.850;2023-06-22T00:20:16;98888.42;;;19.11;62.49
77323;BME280;66384;51.052;9.850;2023-06-22T00:22:46;98880.94;;;19.09;62.72
77323;BME280;66384;51.052;9.850;2023-06-22T00:25:15;98876.91;;;19.10;62.92
77323;BME280;66384;51.052;9.850;2023-06-22T00:27:45;98875.87;;;19.12;62.83
77323;BME280;66384;51.052;9.850;2023-06-22T00:30:16;98879.00;;;19.13;62.78
77323;BME280;66384;51.052;9.850;2023-06-22T00:32:46;98873.07;;;19.12;62.58
77323;BME280;66384;51.052;9.850;2023-06-22T00:35:15;98865.06;;;19.12;62.58
77323;BME280;66384;51.052;9.850;2023-06-22T00:37:44;98866.64;;;19.10;62.55
77323;BME280;66384;51.052;9.850;2023-06-22T00:40:14;98868.39;;;19.08;62.56
77323;BME280;66384;51.052;9.850;2023-06-22T00:42:44;98870.49;;;19.06;62.40
77323;BME280;66384;51.052;9.850;2023-06-22T00:45:13;98861.48;;;18.97;62.51
77323;BME280;66384;51.052;9.850;2023-06-22T00:47:43;98855.77;;;18.88;62.74
77323;BME280;66384;51.052;9.850;2023-06-22T00:50:16;98856.66;;;18.83;62.99
77323;BME280;66384;51.052;9.850;2023-06-22T00:52:50;98848.48;;;18.80;63.08
77323;BME280;66384;51.052;9.850;2023-06-22T00:55:20;98851.27;;;18.78;63.25
77323;BME280;66384;51.052;9.850;2023-06-22T00:57:51;98848.14;;;18.78;63.10
77323;BME280;66384;51.052;9.850;2023-06-22T01:00:24;98841.69;;;18.79;63.16
77323;BME280;66384;51.052;9.850;2023-06-22T01:02:54;98839.77;;;18.82;63.00
77323;BME280;66384;51.052;9.850;2023-06-22T01:05:23;98832.44;;;18.83;63.05
77323;BME280;66384;51.052;9.850;2023-06-22T01:08:04;98823.19;;;18.84;62.94
77323;BME280;66384;51.052;9.850;2023-06-22T01:10:38;98822.14;;;18.85;62.93
77323;BME280;66384;51.052;9.850;2023-06-22T01:13:16;98812.71;;;18.86;63.11
77323;BME280;66384;51.052;9.850;2023-06-22T01:15:51;98803.48;;;18.88;63.10
77323;BME280;66384;51.052;9.850;2023-06-22T01:18:25;98802.45;;;18.88;63.18
77323;BME280;66384;51.052;9.850;2023-06-22T01:20:57;98793.19;;;18.88;63.09
77323;BME280;66384;51.052;9.850;2023-06-22T01:23:36;98787.10;;;18.89;62.98
77323;BME280;66384;51.052;9.850;2023-06-22T01:26:18;98779.60;;;18.91;62.91
77323;BME280;66384;51.052;9.850;2023-06-22T01:28:52;98770.88;;;18.90;62.97
77323;BME280;66384;51.052;9.850;2023-06-22T01:31:24;98766.90;;;18.85;62.84
77323;BME280;66384;51.052;9.850;2023-06-22T01:33:55;98765.02;;;18.78;62.81
77323;BME280;66384;51.052;9.850;2023-06-22T01:36:27;98760.50;;;18.77;62.78
77323;BME280;66384;51.052;9.850;2023-06-22T01:38:55;98754.07;;;18.75;62.95
77323;BME280;66384;51.052;9.850;2023-06-22T01:41:28;98749.88;;;18.71;63.03
77323;BME280;66384;51.052;9.850;2023-06-22T01:43:58;98752.02;;;18.63;63.26
77323;BME280;66384;51.052;9.850;2023-06-22T01:46:28;98765.98;;;18.56;63.45
77323;BME280;66384;51.052;9.850;2023-06-22T01:48:58;98774.03;;;18.48;63.54
77323;BME280;66384;51.052;9.850;2023-06-22T01:51:27;98785.01;;;18.46;63.69
77323;BME280;66384;51.052;9.850;2023-06-22T01:53:57;98788.84;;;18.47;63.74
77323;BME280;66384;51.052;9.850;2023-06-22T01:56:27;98801.37;;;18.50;63.66
77323;BME280;66384;51.052;9.850;2023-06-22T01:59:02;98805.38;;;18.49;63.83
77323;BME280;66384;51.052;9.850;2023-06-22T02:01:41;98817.38;;;18.51;63.82
77323;BME280;66384;51.052;9.850;2023-06-22T02:04:17;98829.04;;;18.53;63.95
77323;BME280;66384;51.052;9.850;2023-06-22T02:06:49;98836.70;;;18.57;64.06
77323;BME280;66384;51.052;9.850;2023-06-22T02:09:21;98844.02;;;18.58;64.10
77323;BME280;66384;51.052;9.850;2023-06-22T02:11:52;98852.71;;;18.60;64.19
77323;BME280;66384;51.052;9.850;2023-06-22T02:14:24;98861.25;;;18.59;64.27
77323;BME280;66384;51.052;9.850;2023-06-22T02:16:54;98875.54;;;18.59;64.57
77323;BME280;66384;51.052;9.850;2023-06-22T02:19:28;98880.41;;;18.59;64.73
77323;BME280;66384;51.052;9.850;2023-06-22T02:22:01;98882.15;;;18.61;64.99
77323;BME280;66384;51.052;9.850;2023-06-22T02:24:30;98888.24;;;18.63;65.20
77323;BME280;66384;51.052;9.850;2023-06-22T02:27:02;98894.50;;;18.67;65.60
77323;BME280;66384;51.052;9.850;2023-06-22T02:29:31;98898.15;;;18.70;65.75
77323;BME280;66384;51.052;9.850;2023-06-22T02:32:00;98907.91;;;18.73;65.90
77323;BME280;66384;51.052;9.850;2023-06-22T02:34:29;98910.71;;;18.75;65.84
77323;BME280;66384;51.052;9.850;2023-06-22T02:36:59;98918.89;;;18.79;65.98
77323;BME280;66384;51.052;9.850;2023-06-22T02:39:30;98918.00;;;18.83;66.11
77323;BME280;66384;51.052;9.850;2023-06-22T02:42:00;98916.95;;;18.86;66.33
77323;BME280;66384;51.052;9.850;2023-06-22T02:44:29;98923.04;;;18.90;66.47
77323;BME280;66384;51.052;9.850;2023-06-22T02:46:59;98925.46;;;18.92;66.65
77323;BME280;66384;51.052;9.850;2023-06-22T02:49:28;98922.68;;;18.94;66.46
77323;BME280;66384;51.052;9.850;2023-06-22T02:51:58;98917.27;;;18.95;66.73
77323;BME280;66384;51.052;9.850;2023-06-22T02:54:27;98914.64;;;18.97;67.03
77323;BME280;66384;51.052;9.850;2023-06-22T02:56:57;98915.50;;;18.98;67.07
77323;BME280;66384;51.052;9.850;2023-06-22T02:59:26;98917.94;;;19.00;67.24
77323;BME280;66384;51.052;9.850;2023-06-22T03:01:55;98911.48;;;19.01;67.33
77323;BME280;66384;51.052;9.850;2023-06-22T03:04:25;98904.87;;;19.00;67.49
77323;BME280;66384;51.052;9.850;2023-06-22T03:06:54;98895.11;;;18.99;67.60
77323;BME280;66384;51.052;9.850;2023-06-22T03:09:23;98887.95;;;18.98;67.69
77323;BME280;66384;51.052;9.850;2023-06-22T03:11:52;98874.73;;;18.96;67.85
77323;BME280;66384;51.052;9.850;2023-06-22T03:14:21;98877.69;;;18.97;68.00
77323;BME280;66384;51.052;9.850;2023-06-22T03:16:51;98874.71;;;18.99;68.24
77323;BME280;66384;51.052;9.850;2023-06-22T03:19:20;98866.52;;;18.98;68.36
77323;BME280;66384;51.052;9.850;2023-06-22T03:21:50;98859.02;;;18.99;68.24
77323;BME280;66384;51.052;9.850;2023-06-22T03:24:19;98853.27;;;19.01;68.55
77323;BME280;66384;51.052;9.850;2023-06-22T03:26:48;98848.56;;;19.02;68.47
77323;BME280;66384;51.052;9.850;2023-06-22T03:29:17;98840.34;;;19.04;68.63
77323;BME280;66384;51.052;9.850;2023-06-22T03:31:47;98840.50;;;19.06;68.66
77323;BME280;66384;51.052;9.850;2023-06-22T03:34:16;98846.95;;;19.08;68.63
77323;BME280;66384;51.052;9.850;2023-06-22T03:36:45;98846.58;;;19.10;68.65
77323;BME280;66384;51.052;9.850;2023-06-22T03:39:14;98835.42;;;19.12;68.88
77323;BME280;66384;51.052;9.850;2023-06-22T03:41:44;98833.32;;;19.14;68.83
77323;BME280;66384;51.052;9.850;2023-06-22T03:44:13;98832.08;;;19.17;68.88
77323;BME280;66384;51.052;9.850;2023-06-22T03:46:42;98830.85;;;19.20;69.00
77323;BME280;66384;51.052;9.850;2023-06-22T03:49:12;98825.06;;;19.21;69.00
77323;BME280;66384;51.052;9.850;2023-06-22T03:51:41;98820.55;;;19.21;68.90
77323;BME280;66384;51.052;9.850;2023-06-22T03:54:10;98814.46;;;19.18;68.93
77323;BME280;66384;51.052;9.850;2023-06-22T03:56:39;98810.98;;;19.16;68.86
77323;BME280;66384;51.052;9.850;2023-06-22T03:59:08;98800.02;;;19.14;69.08
77323;BME280;66384;51.052;9.850;2023-06-22T04:01:38;98792.52;;;19.13;69.14
77323;BME280;66384;51.052;9.850;2023-06-22T04:04:07;98783.98;;;19.13;69.35
77323;BME280;66384;51.052;9.850;2023-06-22T04:06:36;98779.61;;;19.13;69.32
77323;BME280;66384;51.052;9.850;2023-06-22T04:09:06;98779.79;;;19.15;69.55
77323;BME280;66384;51.052;9.850;2023-06-22T04:11:36;98779.25;;;19.16;69.79
77323;BME280;66384;51.052;9.850;2023-06-22T04:14:05;98785.87;;;19.18;69.63
77323;BME280;66384;51.052;9.850;2023-06-22T04:16:34;98788.98;;;19.21;69.68
77323;BME280;66384;51.052;9.850;2023-06-22T04:19:03;98796.28;;;19.24;69.85
77323;BME280;66384;51.052;9.850;2023-06-22T04:21:33;98800.63;;;19.26;69.92
77323;BME280;66384;51.052;9.850;2023-06-22T04:24:02;98805.14;;;19.28;69.86
77323;BME280;66384;51.052;9.850;2023-06-22T04:26:31;98810.70;;;19.31;69.94
77323;BME280;66384;51.052;9.850;2023-06-22T04:29:04;98815.39;;;19.33;70.01
77323;BME280;66384;51.052;9.850;2023-06-22T04:31:34;98817.14;;;19.33;70.13
77323;BME280;66384;51.052;9.850;2023-06-22T04:34:05;98816.96;;;19.34;70.27
77323;BME280;66384;51.052;9.850;2023-06-22T04:36:37;98820.63;;;19.33;70.25
77323;BME280;66384;51.052;9.850;2023-06-22T04:39:08;98816.46;;;19.31;70.31
77323;BME280;66384;51.052;9.850;2023-06-22T04:41:39;98813.31;;;19.31;70.52
77323;BME280;66384;51.052;9.850;2023-06-22T04:44:13;98805.11;;;19.33;70.52
77323;BME280;66384;51.052;9.850;2023-06-22T04:46:53;98803.00;;;19.37;70.57
77323;BME280;66384;51.052;9.850;2023-06-22T04:49:28;98803.83;;;19.41;70.63
77323;BME280;66384;51.052;9.850;2023-06-22T04:52:01;98805.02;;;19.45;70.70
77323;BME280;66384;51.052;9.850;2023-06-22T04:54:31;98805.67;;;19.50;70.54
77323;BME280;66384;51.052;9.850;2023-06-22T04:57:02;98805.28;;;19.55;70.64
77323;BME280;66384;51.052;9.850;2023-06-22T04:59:32;98805.60;;;19.61;70.59
77323;BME280;66384;51.052;9.850;2023-06-22T05:02:02;98809.58;;;19.65;70.55
77323;BME280;66384;51.052;9.850;2023-06-22T05:04:31;98805.02;;;19.71;70.50
77323;BME280;66384;51.052;9.850;2023-06-22T05:07:01;98803.58;;;19.76;70.56
77323;BME280;66384;51.052;9.850;2023-06-22T05:09:31;98803.69;;;19.82;70.61
77323;BME280;66384;51.052;9.850;2023-06-22T05:12:01;98799.81;;;19.86;70.56
77323;BME280;66384;51.052;9.850;2023-06-22T05:14:31;98795.58;;;19.90;70.29
77323;BME280;66384;51.052;9.850;2023-06-22T05:17:00;98795.58;;;19.91;70.34
77323;BME280;66384;51.052;9.850;2023-06-22T05:19:31;98796.23;;;19.93;70.40
77323;BME280;66384;51.052;9.850;2023-06-22T05:22:01;98794.45;;;19.98;70.35
77323;BME280;66384;51.052;9.850;2023-06-22T05:24:30;98791.59;;;20.05;70.33
77323;BME280;66384;51.052;9.850;2023-06-22T05:26:59;98795.02;;;20.12;70.20
77323;BME280;66384;51.052;9.850;2023-06-22T05:29:28;98792.33;;;20.18;70.31
77323;BME280;66384;51.052;9.850;2023-06-22T05:31:58;98792.95;;;20.26;70.13
77323;BME280;66384;51.052;9.850;2023-06-22T05:34:27;98797.75;;;20.33;70.32
77323;BME280;66384;51.052;9.850;2023-06-22T05:36:56;98793.30;;;20.40;70.06
77323;BME280;66384;51.052;9.850;2023-06-22T05:39:26;98790.59;;;20.47;70.03
77323;BME280;66384;51.052;9.850;2023-06-22T05:41:55;98794.55;;;20.55;70.02
77323;BME280;66384;51.052;9.850;2023-06-22T05:44:25;98797.27;;;20.62;69.92
77323;BME280;66384;51.052;9.850;2023-06-22T05:46:54;98799.95;;;20.70;69.89
77323;BME280;66384;51.052;9.850;2023-06-22T05:49:23;98799.88;;;20.75;69.73
77323;BME280;66384;51.052;9.850;2023-06-22T05:51:57;98802.45;;;20.78;69.61
77323;BME280;66384;51.052;9.850;2023-06-22T05:54:26;98806.43;;;20.82;69.51
77323;BME280;66384;51.052;9.850;2023-06-22T05:56:56;98802.88;;;20.86;69.24
77323;BME280;66384;51.052;9.850;2023-06-22T05:59:25;98803.14;;;20.92;69.22
77323;BME280;66384;51.052;9.850;2023-06-22T06:01:54;98799.06;;;20.97;69.25
77323;BME280;66384;51.052;9.850;2023-06-22T06:04:24;98797.42;;;21.01;69.14
77323;BME280;66384;51.052;9.850;2023-06-22T06:06:53;98797.85;;;21.07;69.05
77323;BME280;66384;51.052;9.850;2023-06-22T06:09:22;98797.95;;;21.13;69.07
77323;BME280;66384;51.052;9.850;2023-06-22T06:11:52;98801.03;;;21.18;69.01
77323;BME280;66384;51.052;9.850;2023-06-22T06:14:21;98799.02;;;21.23;68.89
77323;BME280;66384;51.052;9.850;2023-06-22T06:16:51;98796.52;;;21.27;68.85
77323;BME280;66384;51.052;9.850;2023-06-22T06:19:20;98790.16;;;21.31;68.72
77323;BME280;66384;51.052;9.850;2023-06-22T06:21:49;98791.85;;;21.37;68.55
77323;BME280;66384;51.052;9.850;2023-06-22T06:24:19;98799.30;;;21.43;68.36
77323;BME280;66384;51.052;9.850;2023-06-22T06:26:48;98803.41;;;21.47;68.35
77323;BME280;66384;51.052;9.850;2023-06-22T06:29:18;98805.42;;;21.53;68.36
77323;BME280;66384;51.052;9.850;2023-06-22T06:31:47;98804.64;;;21.58;68.17
77323;BME280;66384;51.052;9.850;2023-06-22T06:34:16;98809.77;;;21.64;68.02
77323;BME280;66384;51.052;9.850;2023-06-22T06:36:45;98811.08;;;21.71;67.78
77323;BME280;66384;51.052;9.850;2023-06-22T06:39:15;98808.86;;;21.77;67.61
77323;BME280;66384;51.052;9.850;2023-06-22T06:41:44;98807.16;;;21.84;67.40
77323;BME280;66384;51.052;9.850;2023-06-22T06:44:14;98800.07;;;21.89;67.17
77323;BME280;66384;51.052;9.850;2023-06-22T06:46:43;98798.23;;;21.94;67.06
77323;BME280;66384;51.052;9.850;2023-06-22T06:49:12;98794.13;;;21.98;66.98
77323;BME280;66384;51.052;9.850;2023-06-22T06:51:42;98788.46;;;22.01;66.67
77323;BME280;66384;51.052;9.850;2023-06-22T06:54:11;98782.13;;;22.03;66.58
77323;BME280;66384;51.052;9.850;2023-06-22T06:56:40;98779.31;;;22.04;66.63
77323;BME280;66384;51.052;9.850;2023-06-22T06:59:16;98776.31;;;22.05;66.51
77323;BME280;66384;51.052;9.850;2023-06-22T07:01:45;98776.98;;;22.06;66.22
77323;BME280;66384;51.052;9.850;2023-06-22T07:04:16;98780.59;;;22.10;66.38
77323;BME280;66384;51.052;9.850;2023-06-22T07:06:45;98782.45;;;22.13;66.48
77323;BME280;66384;51.052;9.850;2023-06-22T07:09:14;98780.48;;;22.17;66.38
77323;BME280;66384;51.052;9.850;2023-06-22T07:11:44;98779.25;;;22.18;66.33
77323;BME280;66384;51.052;9.850;2023-06-22T07:14:13;98777.12;;;22.19;66.36
77323;BME280;66384;51.052;9.850;2023-06-22T07:16:42;98768.86;;;22.21;66.37
77323;BME280;66384;51.052;9.850;2023-06-22T07:19:12;98769.17;;;22.23;66.39
77323;BME280;66384;51.052;9.850;2023-06-22T07:21:41;98772.77;;;22.27;66.42
77323;BME280;66384;51.052;9.850;2023-06-22T07:24:11;98774.44;;;22.32;66.27
77323;BME280;66384;51.052;9.850;2023-06-22T07:26:40;98768.91;;;22.36;66.50
77323;BME280;66384;51.052;9.850;2023-06-22T07:29:14;98768.98;;;22.41;66.56
77323;BME280;66384;51.052;9.850;2023-06-22T07:31:43;98767.98;;;22.47;66.57
77323;BME280;66384;51.052;9.850;2023-06-22T07:34:12;98767.02;;;22.52;66.47
77323;BME280;66384;51.052;9.850;2023-06-22T07:36:42;98764.81;;;22.56;66.68
77323;BME280;66384;51.052;9.850;2023-06-22T07:39:11;98761.02;;;22.61;66.56
77323;BME280;66384;51.052;9.850;2023-06-22T07:41:41;98761.56;;;22.68;66.40
77323;BME280;66384;51.052;9.850;2023-06-22T07:44:10;98758.09;;;22.75;66.13
77323;BME280;66384;51.052;9.850;2023-06-22T07:46:40;98761.09;;;22.82;65.90
77323;BME280;66384;51.052;9.850;2023-06-22T07:49:09;98764.07;;;22.90;65.72
77323;BME280;66384;51.052;9.850;2023-06-22T07:51:38;98764.25;;;22.99;65.49
77323;BME280;66384;51.052;9.850;2023-06-22T07:54:08;98760.57;;;23.06;65.15
77323;BME280;66384;51.052;9.850;2023-06-22T07:56:37;98758.77;;;23.15;65.18
77323;BME280;66384;51.052;9.850;2023-06-22T07:59:07;98755.39;;;23.25;64.83
77323;BME280;66384;51.052;9.850;2023-06-22T08:01:36;98747.80;;;23.33;64.84
77323;BME280;66384;51.052;9.850;2023-06-22T08:04:05;98744.98;;;23.41;64.82
77323;BME280;66384;51.052;9.850;2023-06-22T08:06:35;98738.12;;;23.48;64.68
77323;BME280;66384;51.052;9.850;2023-06-22T08:09:04;98736.89;;;23.56;64.74
77323;BME280;66384;51.052;9.850;2023-06-22T08:11:33;98731.93;;;23.64;64.37
77323;BME280;66384;51.052;9.850;2023-06-22T08:14:02;98726.83;;;23.72;64.07
77323;BME280;66384;51.052;9.850;2023-06-22T08:16:32;98726.42;;;23.81;64.24
77323;BME280;66384;51.052;9.850;2023-06-22T08:19:01;98731.11;;;23.90;63.85
77323;BME280;66384;51.052;9.850;2023-06-22T08:21:30;98729.48;;;23.98;63.34
77323;BME280;66384;51.052;9.850;2023-06-22T08:23:59;98731.84;;;24.08;63.37
77323;BME280;66384;51.052;9.850;2023-06-22T08:26:29;98732.46;;;24.17;63.46
77323;BME280;66384;51.052;9.850;2023-06-22T08:28:58;98734.14;;;24.26;63.30
77323;BME280;66384;51.052;9.850;2023-06-22T08:31:27;98726.70;;;24.35;63.02
77323;BME280;66384;51.052;9.850;2023-06-22T08:33:56;98729.45;;;24.43;62.98
77323;BME280;66384;51.052;9.850;2023-06-22T08:36:26;98724.97;;;24.53;62.86
77323;BME280;66384;51.052;9.850;2023-06-22T08:38:58;98722.55;;;24.63;62.55
77323;BME280;66384;51.052;9.850;2023-06-22T08:41:29;98717.64;;;24.68;62.14
77323;BME280;66384;51.052;9.850;2023-06-22T08:43:58;98721.45;;;24.75;62.26
77323;BME280;66384;51.052;9.850;2023-06-22T08:46:28;98718.06;;;24.83;62.18
77323;BME280;66384;51.052;9.850;2023-06-22T08:49:01;98719.45;;;24.89;61.65
77323;BME280;66384;51.052;9.850;2023-06-22T08:51:30;98713.31;;;24.93;61.50
77323;BME280;66384;51.052;9.850;2023-06-22T08:54:00;98710.66;;;25.00;60.97
77323;BME280;66384;51.052;9.850;2023-06-22T08:56:29;98715.63;;;25.09;61.28
77323;BME280;66384;51.052;9.850;2023-06-22T08:58:58;98706.89;;;25.19;61.01
77323;BME280;66384;51.052;9.850;2023-06-22T09:01:28;98697.59;;;25.29;60.86
77323;BME280;66384;51.052;9.850;2023-06-22T09:03:58;98696.92;;;25.38;60.51
77323;BME280;66384;51.052;9.850;2023-06-22T09:06:28;98694.71;;;25.46;60.37
77323;BME280;66384;51.052;9.850;2023-06-22T09:08:59;98695.45;;;25.55;59.92
77323;BME280;66384;51.052;9.850;2023-06-22T09:11:28;98691.64;;;25.63;59.83
77323;BME280;66384;51.052;9.850;2023-06-22T09:13:57;98677.18;;;25.69;59.50
77323;BME280;66384;51.052;9.850;2023-06-22T09:16:27;98673.39;;;25.76;59.26
77323;BME280;66384;51.052;9.850;2023-06-22T09:18:56;98676.55;;;25.82;58.99
77323;BME280;66384;51.052;9.850;2023-06-22T09:21:26;98673.34;;;25.89;58.86
77323;BME280;66384;51.052;9.850;2023-06-22T09:23:55;98674.23;;;25.98;58.64
77323;BME280;66384;51.052;9.850;2023-06-22T09:26:24;98668.34;;;26.10;57.92
77323;BME280;66384;51.052;9.850;2023-06-22T09:28:54;98669.77;;;26.23;57.33
77323;BME280;66384;51.052;9.850;2023-06-22T09:31:23;98666.21;;;26.38;56.79
77323;BME280;66384;51.052;9.850;2023-06-22T09:33:54;98668.70;;;26.52;55.74
77323;BME280;66384;51.052;9.850;2023-06-22T09:36:23;98665.20;;;26.65;55.67
77323;BME280;66384;51.052;9.850;2023-06-22T09:38:52;98667.19;;;26.77;55.32
77323;BME280;66384;51.052;9.850;2023-06-22T09:41:26;98660.89;;;26.88;55.30
77323;BME280;66384;51.052;9.850;2023-06-22T09:43:55;98653.58;;;27.03;55.18
77323;BME280;66384;51.052;9.850;2023-06-22T09:46:24;98650.52;;;27.18;54.91
77323;BME280;66384;51.052;9.850;2023-06-22T09:48:54;98647.16;;;27.31;54.34
77323;BME280;66384;51.052;9.850;2023-06-22T09:51:23;98646.90;;;27.41;54.08
77323;BME280;66384;51.052;9.850;2023-06-22T09:53:53;98635.92;;;27.50;53.72
77323;BME280;66384;51.052;9.850;2023-06-22T09:56:23;98633.98;;;27.57;53.32
77323;BME280;66384;51.052;9.850;2023-06-22T09:58:52;98635.54;;;27.62;52.34
77323;BME280;66384;51.052;9.850;2023-06-22T10:01:21;98640.42;;;27.67;52.15
77323;BME280;66384;51.052;9.850;2023-06-22T10:03:52;98633.48;;;27.69;51.91
77323;BME280;66384;51.052;9.850;2023-06-22T10:06:22;98633.11;;;27.69;51.93
77323;BME280;66384;51.052;9.850;2023-06-22T10:08:53;98626.91;;;27.70;51.65
77323;BME280;66384;51.052;9.850;2023-06-22T10:11:22;98628.17;;;27.73;51.29
77323;BME280;66384;51.052;9.850;2023-06-22T10:13:56;98630.13;;;27.77;51.15
77323;BME280;66384;51.052;9.850;2023-06-22T10:16:31;98632.44;;;27.81;51.19
77323;BME280;66384;51.052;9.850;2023-06-22T10:19:00;98637.15;;;27.82;50.52
77323;BME280;66384;51.052;9.850;2023-06-22T10:21:30;98634.59;;;27.84;50.76
77323;BME280;66384;51.052;9.850;2023-06-22T10:23:59;98625.39;;;27.88;50.51
77323;BME280;66384;51.052;9.850;2023-06-22T10:26:34;98619.81;;;27.94;50.04
77323;BME280;66384;51.052;9.850;2023-06-22T10:29:04;98621.98;;;28.01;49.49
77323;BME280;66384;51.052;9.850;2023-06-22T10:31:33;98616.77;;;28.07;49.48
77323;BME280;66384;51.052;9.850;2023-06-22T10:34:03;98611.34;;;28.09;49.56
77323;BME280;66384;51.052;9.850;2023-06-22T10:36:32;98608.77;;;28.15;49.54
77323;BME280;66384;51.052;9.850;2023-06-22T10:39:01;98606.69;;;28.22;49.15
77323;BME280;66384;51.052;9.850;2023-06-22T10:41:31;98605.55;;;28.28;48.72
77323;BME280;66384;51.052;9.850;2023-06-22T10:44:00;98603.14;;;28.33;48.30
77323;BME280;66384;51.052;9.850;2023-06-22T10:46:30;98600.52;;;28.40;48.58
77323;BME280;66384;51.052;9.850;2023-06-22T10:48:59;98598.30;;;28.46;47.73
77323;BME280;66384;51.052;9.850;2023-06-22T10:51:28;98593.55;;;28.49;46.63
77323;BME280;66384;51.052;9.850;2023-06-22T10:53:59;98585.92;;;28.53;46.57
77323;BME280;66384;51.052;9.850;2023-06-22T10:56:28;98578.66;;;28.57;46.67
77323;BME280;66384;51.052;9.850;2023-06-22T10:58:57;98580.75;;;28.62;46.87
77323;BME280;66384;51.052;9.850;2023-06-22T11:01:27;98578.70;;;28.68;46.46
77323;BME280;66384;51.052;9.850;2023-06-22T11:03:59;98581.16;;;28.75;46.18
77323;BME280;66384;51.052;9.850;2023-06-22T11:06:28;98580.47;;;28.82;46.29
77323;BME280;66384;51.052;9.850;2023-06-22T11:08:57;98579.08;;;28.88;46.40
77323;BME280;66384;51.052;9.850;2023-06-22T11:11:27;98577.63;;;28.96;45.79
77323;BME280;66384;51.052;9.850;2023-06-22T11:13:56;98575.94;;;29.01;45.83
77323;BME280;66384;51.052;9.850;2023-06-22T11:16:25;98564.15;;;29.07;45.70
77323;BME280;66384;51.052;9.850;2023-06-22T11:18:55;98563.59;;;29.15;45.69
77323;BME280;66384;51.052;9.850;2023-06-22T11:21:24;98566.75;;;29.22;46.00
77323;BME280;66384;51.052;9.850;2023-06-22T11:23:53;98563.71;;;29.30;45.69
77323;BME280;66384;51.052;9.850;2023-06-22T11:26:22;98554.80;;;29.37;45.75
77323;BME280;66384;51.052;9.850;2023-06-22T11:28:51;98548.33;;;29.42;45.82
77323;BME280;66384;51.052;9.850;2023-06-22T11:31:21;98544.60;;;29.45;45.74
77323;BME280;66384;51.052;9.850;2023-06-22T11:33:50;98538.06;;;29.49;45.38
77323;BME280;66384;51.052;9.850;2023-06-22T11:36:20;98528.84;;;29.52;45.26
77323;BME280;66384;51.052;9.850;2023-06-22T11:38:49;98523.59;;;29.54;45.36
77323;BME280;66384;51.052;9.850;2023-06-22T11:41:19;98521.17;;;29.53;45.29
77323;BME280;66384;51.052;9.850;2023-06-22T11:43:48;98514.85;;;29.55;45.20
77323;BME280;66384;51.052;9.850;2023-06-22T11:46:18;98509.91;;;29.58;45.27
77323;BME280;66384;51.052;9.850;2023-06-22T11:48:47;98504.92;;;29.62;45.51
77323;BME280;66384;51.052;9.850;2023-06-22T11:51:16;98502.52;;;29.67;45.83
77323;BME280;66384;51.052;9.850;2023-06-22T11:53:45;98493.95;;;29.72;45.77
77323;BME280;66384;51.052;9.850;2023-06-22T11:56:14;98493.19;;;29.79;45.41
77323;BME280;66384;51.052;9.850;2023-06-22T11:58:44;98486.54;;;29.87;45.11
77323;BME280;66384;51.052;9.850;2023-06-22T12:01:13;98476.73;;;29.95;45.10
77323;BME280;66384;51.052;9.850;2023-06-22T12:03:41;98464.90;;;30.03;44.90
77323;BME280;66384;51.052;9.850;2023-06-22T12:06:12;98459.92;;;30.09;45.22
77323;BME280;66384;51.052;9.850;2023-06-22T12:08:41;98455.44;;;30.16;45.14
77323;BME280;66384;51.052;9.850;2023-06-22T12:11:10;98451.98;;;30.24;45.18
77323;BME280;66384;51.052;9.850;2023-06-22T12:13:39;98439.09;;;30.35;44.96
77323;BME280;66384;51.052;9.850;2023-06-22T12:16:08;98439.89;;;30.49;44.63
77323;BME280;66384;51.052;9.850;2023-06-22T12:18:38;98439.89;;;30.64;44.36
77323;BME280;66384;51.052;9.850;2023-06-22T12:21:07;98445.33;;;30.77;43.84
77323;BME280;66384;51.052;9.850;2023-06-22T12:23:36;98444.48;;;30.89;43.02
77323;BME280;66384;51.052;9.850;2023-06-22T12:26:05;98439.59;;;30.99;42.99
77323;BME280;66384;51.052;9.850;2023-06-22T12:28:34;98432.70;;;31.10;42.81
77323;BME280;66384;51.052;9.850;2023-06-22T12:31:04;98431.50;;;31.20;42.96
77323;BME280;66384;51.052;9.850;2023-06-22T12:33:33;98425.36;;;31.31;42.47
77323;BME280;66384;51.052;9.850;2023-06-22T12:36:02;98428.80;;;31.41;42.64
77323;BME280;66384;51.052;9.850;2023-06-22T12:38:33;98423.19;;;31.49;42.07
77323;BME280;66384;51.052;9.850;2023-06-22T12:41:02;98423.31;;;31.55;42.32
77323;BME280;66384;51.052;9.850;2023-06-22T12:43:31;98418.48;;;31.61;42.10
77323;BME280;66384;51.052;9.850;2023-06-22T12:46:00;98416.25;;;31.68;41.71
77323;BME280;66384;51.052;9.850;2023-06-22T12:48:29;98412.27;;;31.72;41.80
77323;BME280;66384;51.052;9.850;2023-06-22T12:50:59;98394.45;;;31.72;41.74
77323;BME280;66384;51.052;9.850;2023-06-22T12:53:28;98397.09;;;31.72;41.50
77323;BME280;66384;51.052;9.850;2023-06-22T12:55:57;98398.08;;;31.68;41.14
77323;BME280;66384;51.052;9.850;2023-06-22T12:58:26;98400.84;;;31.67;41.34
77323;BME280;66384;51.052;9.850;2023-06-22T13:00:55;98398.18;;;31.69;40.85
77323;BME280;66384;51.052;9.850;2023-06-22T13:03:25;98389.67;;;31.75;41.19
77323;BME280;66384;51.052;9.850;2023-06-22T13:05:55;98383.91;;;31.84;40.76
77323;BME280;66384;51.052;9.850;2023-06-22T13:08:25;98374.65;;;31.84;40.56
77323;BME280;66384;51.052;9.850;2023-06-22T13:10:54;98370.79;;;31.81;40.44
77323;BME280;66384;51.052;9.850;2023-06-22T13:13:25;98363.42;;;31.77;40.24